DEKCM EDLW-EDLW

Flight info

Callsign DEKCM
Flight time 0h 29m
Altitude
Route
Aircraft DA62

Departure

Time 2026-05-07 18:20
Airport Dortmund Airport (EDLW)

Arrival

Time 2026-05-07 18:49
Airport Dortmund Airport (EDLW)
Time Latitude Longitude Altitude Speed Heading
2026-05-07 18:09 51.51254 7.60556 457 ft 0 kts 103°
2026-05-07 18:12 51.51255 7.60565 457 ft 5 kts 66°
2026-05-07 18:13 51.51266 7.60501 451 ft 11 kts 248°
2026-05-07 18:13 51.51223 7.60376 451 ft 16 kts 240°
2026-05-07 18:13 51.51163 7.60239 455 ft 12 kts 235°
2026-05-07 18:13 51.51189 7.60153 450 ft 11 kts 19°
2026-05-07 18:14 51.51239 7.60282 443 ft 18 kts 60°
2026-05-07 18:14 51.51297 7.60449 440 ft 17 kts 60°
2026-05-07 18:14 51.51357 7.60618 438 ft 17 kts 60°
2026-05-07 18:14 51.51415 7.60784 432 ft 18 kts 60°
2026-05-07 18:15 51.51475 7.60954 430 ft 16 kts 61°
2026-05-07 18:15 51.51536 7.61065 427 ft 11 kts 351°
2026-05-07 18:15 51.51572 7.60971 422 ft 11 kts 254°
2026-05-07 18:15 51.51565 7.60929 417 ft 0 kts 253°
2026-05-07 18:16 51.51555 7.60877 416 ft 12 kts 254°
2026-05-07 18:16 51.51530 7.60735 417 ft 14 kts 255°
2026-05-07 18:17 51.51527 7.60690 416 ft 0 kts 273°
2026-05-07 18:18 51.51528 7.60675 416 ft 8 kts 285°
2026-05-07 18:18 51.51590 7.60609 415 ft 12 kts
2026-05-07 18:18 51.51630 7.60649 416 ft 0 kts 58°
2026-05-07 18:19 51.51687 7.60811 417 ft 43 kts 60°
2026-05-07 18:19 51.51909 7.61437 411 ft 83 kts 60°
2026-05-07 18:19 51.52234 7.62272 561 ft 90 kts 56°
2026-05-07 18:20 51.52635 7.63028 785 ft 89 kts 33°
2026-05-07 18:20 51.53226 7.63042 963 ft 93 kts 315°
2026-05-07 18:20 51.53207 7.62044 1054 ft 108 kts 245°
2026-05-07 18:20 51.52846 7.60942 964 ft 115 kts 238°
2026-05-07 18:21 51.52397 7.59928 846 ft 105 kts 231°
2026-05-07 18:21 51.51900 7.59109 650 ft 100 kts 211°
2026-05-07 18:21 51.51278 7.59151 657 ft 93 kts 124°
2026-05-07 18:21 51.51445 7.60120 466 ft 95 kts 59°
2026-05-07 18:22 51.51748 7.60972 417 ft 80 kts 60°
2026-05-07 18:22 51.51946 7.61532 455 ft 91 kts 60°
2026-05-07 18:22 51.52415 7.62715 744 ft 92 kts 37°
2026-05-07 18:22 51.53003 7.62828 1002 ft 87 kts 331°
2026-05-07 18:23 51.53172 7.61984 1122 ft 97 kts 245°
2026-05-07 18:23 51.52831 7.60979 981 ft 99 kts 236°
2026-05-07 18:23 51.52452 7.60078 713 ft 97 kts 234°
2026-05-07 18:23 51.52037 7.59206 632 ft 99 kts 226°
2026-05-07 18:24 51.51445 7.59143 661 ft 93 kts 133°
2026-05-07 18:24 51.51434 7.60091 534 ft 95 kts 59°
2026-05-07 18:24 51.51741 7.60951 419 ft 80 kts 59°
2026-05-07 18:24 51.51998 7.61691 411 ft 84 kts 61°
2026-05-07 18:25 51.52323 7.62536 576 ft 88 kts 57°
2026-05-07 18:25 51.52747 7.63122 808 ft 85 kts
2026-05-07 18:25 51.53272 7.62739 989 ft 88 kts 299°
2026-05-07 18:25 51.53215 7.61789 1111 ft 98 kts 241°
2026-05-07 18:26 51.52834 7.60768 1086 ft 107 kts 237°
2026-05-07 18:26 51.52426 7.59800 869 ft 103 kts 234°
2026-05-07 18:26 51.52012 7.58868 765 ft 103 kts 232°
2026-05-07 18:26 51.51391 7.58587 716 ft 98 kts 150°
2026-05-07 18:27 51.51237 7.59536 614 ft 103 kts 62°
2026-05-07 18:27 51.51569 7.60459 427 ft 88 kts 60°
2026-05-07 18:27 51.51841 7.61233 414 ft 81 kts 61°
2026-05-07 18:27 51.52157 7.62078 563 ft 90 kts 57°
2026-05-07 18:28 51.52502 7.62901 793 ft 88 kts 40°
2026-05-07 18:28 51.53064 7.62986 958 ft 94 kts 324°
2026-05-07 18:28 51.53222 7.62022 1102 ft 103 kts 248°
2026-05-07 18:28 51.52915 7.60905 1053 ft 105 kts 243°
2026-05-07 18:29 51.52556 7.59941 807 ft 96 kts 235°
2026-05-07 18:29 51.52158 7.59086 696 ft 95 kts 229°
2026-05-07 18:29 51.51629 7.58505 605 ft 93 kts 182°
2026-05-07 18:29 51.51166 7.59101 635 ft 96 kts 96°
2026-05-07 18:30 51.51420 7.60046 508 ft 95 kts 59°
2026-05-07 18:30 51.51723 7.60896 414 ft 78 kts 61°
2026-05-07 18:30 51.52029 7.61758 489 ft 95 kts 58°
2026-05-07 18:30 51.52376 7.62647 753 ft 91 kts 43°
2026-05-07 18:31 51.52947 7.62735 966 ft 91 kts 317°
2026-05-07 18:31 51.52962 7.61775 1107 ft 100 kts 243°
2026-05-07 18:31 51.52617 7.60669 1108 ft 119 kts 240°
2026-05-07 18:31 51.52164 7.59457 1108 ft 130 kts 238°
2026-05-07 18:32 51.51671 7.58492 911 ft 102 kts 202°
2026-05-07 18:32 51.51089 7.58826 740 ft 102 kts 106°
2026-05-07 18:32 51.51335 7.59799 542 ft 95 kts 57°
2026-05-07 18:32 51.51650 7.60692 414 ft 85 kts 59°
2026-05-07 18:33 51.51942 7.61530 458 ft 93 kts 61°
2026-05-07 18:33 51.52293 7.62436 656 ft 96 kts 52°
2026-05-07 18:33 51.52823 7.62879 902 ft 94 kts 354°
2026-05-07 18:33 51.53229 7.62171 1095 ft 95 kts 261°
2026-05-07 18:34 51.52942 7.61106 1135 ft 117 kts 242°
2026-05-07 18:34 51.52496 7.59898 1141 ft 135 kts 237°
2026-05-07 18:34 51.51945 7.58569 1091 ft 151 kts 236°
2026-05-07 18:34 51.51376 7.57134 1174 ft 153 kts 237°
2026-05-07 18:35 51.50819 7.55667 1234 ft 156 kts 240°
2026-05-07 18:35 51.50116 7.55158 1349 ft 102 kts 142°
2026-05-07 18:35 51.50080 7.56222 932 ft 104 kts 64°
2026-05-07 18:35 51.50443 7.57232 764 ft 105 kts 58°
2026-05-07 18:36 51.50803 7.58256 639 ft 107 kts 62°
2026-05-07 18:36 51.51161 7.59299 548 ft 109 kts 60°
2026-05-07 18:36 51.51507 7.60294 431 ft 92 kts 60°
2026-05-07 18:36 51.51788 7.61088 417 ft 84 kts 61°
2026-05-07 18:37 51.52092 7.61970 579 ft 92 kts 61°
2026-05-07 18:37 51.52471 7.62767 808 ft 91 kts 24°
2026-05-07 18:37 51.53053 7.62520 996 ft 94 kts 302°
2026-05-07 18:37 51.52973 7.61497 1107 ft 107 kts 244°
2026-05-07 18:38 51.52569 7.60347 1138 ft 126 kts 238°
2026-05-07 18:38 51.52087 7.59093 1188 ft 138 kts 238°
2026-05-07 18:38 51.51536 7.57744 1168 ft 151 kts 236°
2026-05-07 18:38 51.50949 7.56281 1159 ft 158 kts 237°
2026-05-07 18:39 51.50247 7.55079 1472 ft 126 kts 191°
2026-05-07 18:39 51.49777 7.55746 1294 ft 108 kts 74°
2026-05-07 18:39 51.50231 7.56757 995 ft 106 kts 50°
2026-05-07 18:39 51.50624 7.57743 801 ft 103 kts 62°
2026-05-07 18:40 51.50960 7.58730 636 ft 101 kts 59°
2026-05-07 18:40 51.51304 7.59710 517 ft 100 kts 60°
2026-05-07 18:40 51.51639 7.60668 414 ft 90 kts 60°
2026-05-07 18:40 51.51943 7.61543 461 ft 97 kts 61°
2026-05-07 18:41 51.52227 7.62455 760 ft 89 kts 66°
2026-05-07 18:41 51.52513 7.63364 893 ft 100 kts 52°
2026-05-07 18:41 51.53118 7.63719 1151 ft 95 kts 334°
2026-05-07 18:41 51.53339 7.62779 1165 ft 100 kts 247°
2026-05-07 18:42 51.52998 7.61809 1014 ft 99 kts 238°
2026-05-07 18:42 51.52611 7.60897 876 ft 99 kts 233°
2026-05-07 18:42 51.52215 7.59995 755 ft 101 kts 236°
2026-05-07 18:42 51.51801 7.59035 724 ft 107 kts 234°
2026-05-07 18:43 51.51360 7.58098 785 ft 104 kts 232°
2026-05-07 18:43 51.50853 7.57313 871 ft 97 kts 192°
2026-05-07 18:43 51.50469 7.57920 877 ft 97 kts 69°
2026-05-07 18:43 51.50920 7.58818 687 ft 101 kts 49°
2026-05-07 18:44 51.51309 7.59722 511 ft 98 kts 61°
2026-05-07 18:44 51.51634 7.60655 429 ft 94 kts 60°
2026-05-07 18:44 51.51939 7.61521 452 ft 91 kts 61°
2026-05-07 18:44 51.52230 7.62440 676 ft 90 kts 63°
2026-05-07 18:45 51.52596 7.63243 888 ft 92 kts 22°
2026-05-07 18:45 51.53098 7.62891 1064 ft 95 kts 276°
2026-05-07 18:45 51.52854 7.61729 965 ft 127 kts 244°
2026-05-07 18:45 51.52378 7.60442 1002 ft 140 kts 237°
2026-05-07 18:46 51.51874 7.59059 1075 ft 146 kts 240°
2026-05-07 18:46 51.51432 7.57576 1187 ft 148 kts 249°
2026-05-07 18:46 51.51063 7.56071 1353 ft 146 kts 248°
2026-05-07 18:46 51.50652 7.54566 1443 ft 149 kts 244°
2026-05-07 18:47 51.50196 7.53056 1526 ft 152 kts 243°
2026-05-07 18:47 51.49522 7.51921 1805 ft 138 kts 176°
2026-05-07 18:47 51.49265 7.52937 1520 ft 120 kts 40°
2026-05-07 18:47 51.49933 7.53483 1211 ft 112 kts 74°
2026-05-07 18:48 51.50029 7.54766 1034 ft 113 kts 83°
2026-05-07 18:48 51.50171 7.56004 887 ft 112 kts 75°
2026-05-07 18:48 51.50434 7.57190 782 ft 110 kts 64°
2026-05-07 18:48 51.50774 7.58198 681 ft 101 kts 59°
2026-05-07 18:49 51.51121 7.59169 600 ft 99 kts 60°
2026-05-07 18:49 51.51447 7.60116 466 ft 93 kts 60°
2026-05-07 18:49 51.51735 7.60937 413 ft 71 kts 60°
2026-05-07 18:49 51.51921 7.61474 410 ft 46 kts 61°
2026-05-07 18:50 51.52056 7.61859 407 ft 34 kts 60°
2026-05-07 18:50 51.52157 7.62141 406 ft 26 kts 60°
2026-05-07 18:50 51.52192 7.62289 405 ft 11 kts 110°
2026-05-07 18:50 51.52149 7.62346 405 ft 0 kts 153°
2026-05-07 18:51 51.52138 7.62355 405 ft 6 kts 150°
2026-05-07 18:51 51.52130 7.62363 405 ft 0 kts 150°
2026-05-07 18:51 51.52118 7.62374 405 ft 8 kts 150°
2026-05-07 18:52 51.52044 7.62372 404 ft 11 kts 239°
2026-05-07 18:52 51.52005 7.62256 407 ft 17 kts 241°
2026-05-07 18:52 51.51944 7.62084 408 ft 20 kts 240°
2026-05-07 18:52 51.51880 7.61901 411 ft 19 kts 240°
2026-05-07 18:53 51.51815 7.61715 412 ft 18 kts 241°
2026-05-07 18:53 51.51756 7.61549 417 ft 17 kts 240°
2026-05-07 18:53 51.51696 7.61378 420 ft 19 kts 240°
2026-05-07 18:53 51.51632 7.61198 424 ft 19 kts 240°
2026-05-07 18:54 51.51556 7.61048 425 ft 13 kts 177°
2026-05-07 18:54 51.51492 7.61012 427 ft 12 kts 244°
2026-05-07 18:54 51.51442 7.60864 427 ft 18 kts 240°
2026-05-07 18:54 51.51381 7.60690 437 ft 18 kts 241°
2026-05-07 18:55 51.51314 7.60500 437 ft 20 kts 240°
2026-05-07 18:55 51.51250 7.60318 443 ft 19 kts 240°
2026-05-07 18:55 51.51197 7.60172 448 ft 8 kts 222°
2026-05-07 18:55 51.51155 7.60178 455 ft 9 kts 126°
2026-05-07 18:56 51.51185 7.60278 453 ft 15 kts 50°
2026-05-07 18:56 51.51201 7.60384 456 ft 5 kts 109°
2026-05-07 18:56 51.51198 7.60395 457 ft 0 kts 112°